Time;durP1;ratioP1;P1;durP2;ratioP2;P2;SDS_P1;SDS_P2;PMS_P1;PMS_P2;Temp;Humidity;BMP_temperature;BMP_pressure;BME280_temperature;BME280_humidity;BME280_pressure;Samples;Min_cycle;Max_cycle;Signal;HPM_P1;HPM_P2
2023/07/24 00:01:12;;;;;;;;;;;;;;;25.12;38.34;99959.21;2361462;74;51488;-74
2023/07/24 00:04:14;;;;;;;;;;;;;;;25.12;38.35;99949.20;2361445;74;53666;-76
2023/07/24 00:07:15;;;;;;;;;;;;;;;25.12;38.35;99949.20;2394429;74;51484;-75
2023/07/24 00:10:17;;;;;;;;;;;;;;;25.12;38.34;99949.20;2334524;74;52307;-75
2023/07/24 00:13:18;;;;;;;;;;;;;;;25.12;38.35;99943.78;2361444;74;51533;-75
2023/07/24 00:16:20;;;;;;;;;;;;;;;25.13;38.34;99937.86;2361196;74;51492;-75
2023/07/24 00:19:22;;;;;;;;;;;;;;;25.13;38.35;99947.34;2394679;74;51541;-74
2023/07/24 00:22:23;;;;;;;;;;;;;;;25.11;38.40;99939.45;2328710;74;52580;-76
2023/07/24 00:25:25;;;;;;;;;;;;;;;25.12;38.39;99934.84;2395427;74;51573;-75
2023/07/24 00:28:26;;;;;;;;;;;;;;;25.12;38.36;99930.78;2394420;74;51490;-75
2023/07/24 00:31:28;;;;;;;;;;;;;;;25.11;38.38;99934.03;2394845;74;51569;-74
2023/07/24 00:34:30;;;;;;;;;;;;;;;25.11;38.42;99931.33;2361694;74;50575;-75
2023/07/24 00:37:31;;;;;;;;;;;;;;;25.12;38.39;99922.66;2394587;74;50285;-75
2023/07/24 00:40:33;;;;;;;;;;;;;;;25.10;38.43;99920.22;2361680;74;50434;-75
2023/07/24 00:43:34;;;;;;;;;;;;;;;25.10;38.40;99926.98;2394878;74;50665;-76
2023/07/24 00:46:36;;;;;;;;;;;;;;;25.11;38.41;99908.31;2334518;74;50929;-74
2023/07/24 00:49:37;;;;;;;;;;;;;;;25.11;38.41;99914.27;2361519;74;50438;-75
2023/07/24 00:52:39;;;;;;;;;;;;;;;25.11;38.41;99914.27;2395176;74;50666;-75
2023/07/24 00:55:41;;;;;;;;;;;;;;;25.10;38.45;99909.39;2394577;74;50693;-75
2023/07/24 00:58:42;;;;;;;;;;;;;;;25.11;38.42;99910.20;2363263;74;51030;-74
2023/07/24 01:01:44;;;;;;;;;;;;;;;25.10;38.43;99899.92;2397220;73;50791;-74
2023/07/24 01:04:45;;;;;;;;;;;;;;;25.11;38.44;99896.67;2397328;73;50773;-75
2023/07/24 01:07:47;;;;;;;;;;;;;;;25.11;38.42;99900.73;2396949;73;51467;-75
2023/07/24 01:10:48;;;;;;;;;;;;;;;25.10;38.45;99897.21;2363432;73;49613;-76
2023/07/24 01:13:54;;;;;;;;;;;;;;;25.10;38.45;99884.19;2397320;73;50326;-74
2023/07/24 01:16:56;;;;;;;;;;;;;;;25.08;38.46;99872.80;2396262;73;51446;-75
2023/07/24 01:20:03;;;;;;;;;;;;;;;25.11;38.46;99881.78;2397270;74;50317;-75
2023/07/24 01:23:18;;;;;;;;;;;;;;;25.10;38.45;99881.48;2386808;73;50707;-75
2023/07/24 01:26:20;;;;;;;;;;;;;;;25.10;38.47;99880.97;2395099;74;51494;-75
2023/07/24 01:29:21;;;;;;;;;;;;;;;25.09;38.45;99875.25;2394717;74;51430;-75
2023/07/24 01:32:23;;;;;;;;;;;;;;;25.07;38.49;99867.09;2361628;74;50645;-73
2023/07/24 01:35:25;;;;;;;;;;;;;;;25.09;38.48;99879.31;2388805;74;52371;-74
2023/07/24 01:38:26;;;;;;;;;;;;;;;25.09;38.50;99875.78;2361173;74;51618;-75
2023/07/24 01:41:28;;;;;;;;;;;;;;;25.07;38.51;99870.61;2394769;74;51450;-74
2023/07/24 01:44:30;;;;;;;;;;;;;;;25.08;38.50;99866.85;2394837;74;51450;-74
2023/07/24 01:47:31;;;;;;;;;;;;;;;25.08;38.49;99868.20;2334415;74;52454;-75
2023/07/24 01:50:33;;;;;;;;;;;;;;;25.08;38.51;99872.80;2361625;74;50094;-75
2023/07/24 01:53:34;;;;;;;;;;;;;;;25.08;38.52;99868.74;2352778;74;50105;-76
2023/07/24 01:56:37;;;;;;;;;;;;;;;25.08;38.51;99860.09;2394905;73;50465;-75
2023/07/24 01:59:39;;;;;;;;;;;;;;;25.08;38.50;99860.09;2388929;74;52511;-74
2023/07/24 02:02:40;;;;;;;;;;;;;;;25.08;38.54;99857.38;2361560;74;51453;-75
2023/07/24 02:05:42;;;;;;;;;;;;;;;25.08;38.51;99859.27;2394892;74;50752;-74
2023/07/24 02:08:48;;;;;;;;;;;;;;;25.08;38.52;99860.62;2361364;74;51454;-75
2023/07/24 02:11:47;;;;;;;;;;;;;;;25.07;38.54;99854.36;2361722;74;22543;-75
2023/07/24 02:14:49;;;;;;;;;;;;;;;25.07;38.52;99843.54;2394732;74;50447;-75
2023/07/24 02:17:51;;;;;;;;;;;;;;;25.07;38.54;99857.61;2394527;74;51611;-76
2023/07/24 02:20:52;;;;;;;;;;;;;;;25.07;38.53;99853.55;2361445;74;51462;-75
2023/07/24 02:23:54;;;;;;;;;;;;;;;25.07;38.54;99846.78;2390046;74;52336;-75
2023/07/24 02:26:56;;;;;;;;;;;;;;;25.07;38.56;99838.12;2394696;74;51524;-75
2023/07/24 02:29:57;;;;;;;;;;;;;;;25.07;38.54;99844.08;2394700;74;51529;-75
2023/07/24 02:32:59;;;;;;;;;;;;;;;25.06;38.58;99837.03;2394818;74;50432;-75
2023/07/24 02:36:01;;;;;;;;;;;;;;;25.07;38.57;99831.89;2388844;74;50122;-75
2023/07/24 02:39:02;;;;;;;;;;;;;;;25.06;38.59;99837.85;2361352;74;52146;-75
2023/07/24 02:42:04;;;;;;;;;;;;;;;25.06;38.58;99833.79;2394780;74;50117;-76
2023/07/24 02:45:10;;;;;;;;;;;;;;;25.06;38.58;99837.03;2361464;74;51580;-74
2023/07/24 02:48:10;;;;;;;;;;;;;;;25.05;38.60;99840.28;2394824;74;22824;-75
2023/07/24 02:51:11;;;;;;;;;;;;;;;25.06;38.59;99846.51;2361370;74;51550;-75
2023/07/24 02:54:13;;;;;;;;;;;;;;;25.06;38.59;99855.98;2362684;74;50450;-75
2023/07/24 02:57:14;;;;;;;;;;;;;;;25.05;38.59;99855.67;2394545;74;50296;-74
2023/07/24 03:00:16;;;;;;;;;;;;;;;25.05;38.61;99856.52;2334836;74;50048;-75
2023/07/24 03:03:17;;;;;;;;;;;;;;;25.04;38.62;99858.92;2361467;74;50466;-74
2023/07/24 03:06:19;;;;;;;;;;;;;;;25.05;38.60;99865.15;2394460;74;50250;-74
2023/07/24 03:09:21;;;;;;;;;;;;;;;25.05;38.64;99871.92;2361376;74;51525;-74
2023/07/24 03:12:22;;;;;;;;;;;;;;;25.04;38.65;99874.34;2334729;74;51613;-74
2023/07/24 03:15:24;;;;;;;;;;;;;;;25.04;38.64;99868.40;2361733;74;50651;-75
2023/07/24 03:18:25;;;;;;;;;;;;;;;25.04;38.66;99871.64;2386333;74;51473;-75
2023/07/24 03:21:27;;;;;;;;;;;;;;;25.04;38.66;99867.05;2395458;74;51570;-75
2023/07/24 03:24:28;;;;;;;;;;;;;;;25.04;38.65;99875.70;2394772;74;51487;-75
2023/07/24 03:27:30;;;;;;;;;;;;;;;25.04;38.66;99862.17;2361152;74;51520;-75
2023/07/24 03:30:32;;;;;;;;;;;;;;;25.03;38.66;99870.83;2361494;74;51485;-74
2023/07/24 03:33:33;;;;;;;;;;;;;;;25.04;38.66;99865.69;2394761;74;50153;-74
2023/07/24 03:36:35;;;;;;;;;;;;;;;25.04;38.65;99877.05;2361056;74;50339;-74
2023/07/24 03:39:37;;;;;;;;;;;;;;;25.05;38.67;99869.21;2388877;74;51786;-76
2023/07/24 03:42:38;;;;;;;;;;;;;;;25.04;38.67;99871.64;2361478;74;51544;-75
2023/07/24 03:45:40;;;;;;;;;;;;;;;25.04;38.72;99875.70;2361585;74;50261;-76
2023/07/24 03:48:42;;;;;;;;;;;;;;;25.04;38.68;99868.94;2352810;74;50428;-76
2023/07/24 03:51:43;;;;;;;;;;;;;;;25.03;38.69;99873.53;2389500;74;52363;-75
2023/07/24 03:54:45;;;;;;;;;;;;;;;25.03;38.68;99872.18;2394621;74;50324;-75
2023/07/24 03:57:47;;;;;;;;;;;;;;;25.03;38.72;99870.83;2388499;74;52328;-76
2023/07/24 04:00:48;;;;;;;;;;;;;;;25.02;38.75;99875.94;2394755;74;51522;-74
2023/07/24 04:03:50;;;;;;;;;;;;;;;25.03;38.75;99871.36;2388676;73;51043;-74
2023/07/24 04:06:51;;;;;;;;;;;;;;;25.01;38.75;99875.66;2394551;73;51476;-75
2023/07/24 04:09:54;;;;;;;;;;;;;;;25.02;38.75;99875.94;2394799;74;50292;-76
2023/07/24 04:12:56;;;;;;;;;;;;;;;25.03;38.74;99876.23;2394861;74;51575;-74
2023/07/24 04:15:59;;;;;;;;;;;;;;;25.04;38.75;99875.70;2334679;74;51589;-75
2023/07/24 04:19:01;;;;;;;;;;;;;;;25.02;38.76;99865.64;2395122;74;51575;-75
2023/07/24 04:22:02;;;;;;;;;;;;;;;25.02;38.76;99871.87;2395485;74;50189;-74
2023/07/24 04:25:04;;;;;;;;;;;;;;;25.03;38.75;99873.53;2361606;74;52490;-75
2023/07/24 04:28:06;;;;;;;;;;;;;;;25.03;38.77;99861.89;2388610;73;51274;-74
2023/07/24 04:31:07;;;;;;;;;;;;;;;25.05;38.77;99867.86;2361621;74;50454;-74
2023/07/24 04:34:09;;;;;;;;;;;;;;;25.04;38.78;99872.45;2394789;74;50332;-74
2023/07/24 04:37:10;;;;;;;;;;;;;;;25.04;38.81;99875.70;2394501;74;50412;-74
2023/07/24 04:40:12;;;;;;;;;;;;;;;25.03;38.83;99862.70;2394818;74;50783;-74
2023/07/24 04:43:14;;;;;;;;;;;;;;;25.04;38.87;99859.46;2361320;74;50043;-75
2023/07/24 04:46:15;;;;;;;;;;;;;;;25.04;38.84;99859.46;2394597;73;50278;-75
2023/07/24 04:49:17;;;;;;;;;;;;;;;25.03;38.86;99861.36;2395327;73;50251;-75
2023/07/24 04:52:18;;;;;;;;;;;;;;;25.03;38.85;99862.70;2397121;73;50671;-75
2023/07/24 04:55:20;;;;;;;;;;;;;;;25.04;38.87;99863.52;2362243;73;50765;-75
2023/07/24 04:58:22;;;;;;;;;;;;;;;25.03;38.91;99856.48;2362234;74;50335;-74
2023/07/24 05:01:23;;;;;;;;;;;;;;;25.03;38.95;99859.19;2362425;73;49900;-75
2023/07/24 05:04:25;;;;;;;;;;;;;;;25.03;38.97;99855.94;2335575;74;50086;-74
2023/07/24 05:07:27;;;;;;;;;;;;;;;25.05;39.00;99862.44;2362204;73;51462;-74
2023/07/24 05:10:28;;;;;;;;;;;;;;;25.05;39.01;99850.27;2362290;73;51449;-74
2023/07/24 05:13:30;;;;;;;;;;;;;;;25.06;39.01;99845.16;2362423;74;51422;-74
2023/07/24 05:16:31;;;;;;;;;;;;;;;25.06;38.99;99846.51;2390907;73;52681;-75
2023/07/24 05:19:33;;;;;;;;;;;;;;;25.06;39.02;99845.16;2350790;74;51438;-75
2023/07/24 05:22:35;;;;;;;;;;;;;;;25.07;39.02;99839.48;2395505;73;51416;-74
2023/07/24 05:25:36;;;;;;;;;;;;;;;25.13;39.02;99837.70;2361579;74;51427;-74
2023/07/24 05:28:38;;;;;;;;;;;;;;;25.25;38.90;99838.44;2388722;74;52481;-75
2023/07/24 05:31:39;;;;;;;;;;;;;;;25.27;38.92;99836.31;2361776;74;51481;-75
2023/07/24 05:34:41;;;;;;;;;;;;;;;25.28;39.03;99831.20;2362026;74;52268;-75
2023/07/24 05:37:42;;;;;;;;;;;;;;;25.27;39.11;99833.61;2361749;74;51711;-74
2023/07/24 05:40:44;;;;;;;;;;;;;;;25.28;39.14;99830.36;2335741;74;51652;-75
2023/07/24 05:43:46;;;;;;;;;;;;;;;25.30;39.12;99828.23;2365296;74;51558;-74
2023/07/24 05:46:47;;;;;;;;;;;;;;;25.39;39.33;99819.44;2362575;74;50751;-75
2023/07/24 05:49:49;;;;;;;;;;;;;;;25.45;39.48;99826.29;2363609;74;50581;-75
2023/07/24 05:52:50;;;;;;;;;;;;;;;25.51;39.63;99827.98;2390027;74;49605;-75
2023/07/24 05:55:59;;;;;;;;;;;;;;;25.57;39.60;99826.47;2395831;74;50304;-76
2023/07/24 05:59:01;;;;;;;;;;;;;;;25.66;39.58;99816.02;2396298;73;50359;-75
2023/07/24 06:02:03;;;;;;;;;;;;;;;25.66;39.73;99811.13;2396422;73;51533;-76
2023/07/24 06:05:04;;;;;;;;;;;;;;;25.75;39.66;99800.97;2337834;74;50678;-76
2023/07/24 06:08:08;;;;;;;;;;;;;;;25.82;39.62;99796.19;2362256;74;51485;-75
2023/07/24 06:11:10;;;;;;;;;;;;;;;25.90;39.55;99796.31;2363703;74;22389;-75
2023/07/24 06:14:12;;;;;;;;;;;;;;;25.98;39.50;99790.98;2396536;74;51512;-76
2023/07/24 06:17:13;;;;;;;;;;;;;;;26.01;39.49;99802.67;2396028;74;51418;-76
2023/07/24 06:20:15;;;;;;;;;;;;;;;26.04;39.49;99787.25;2398170;73;51695;-75
2023/07/24 06:23:16;;;;;;;;;;;;;;;26.05;39.53;99782.13;2391601;74;50115;-75
2023/07/24 06:26:18;;;;;;;;;;;;;;;26.10;39.54;99792.19;2397572;74;50264;-76
2023/07/24 06:29:20;;;;;;;;;;;;;;;26.13;39.45;99790.34;2335819;74;51171;-75
2023/07/24 06:32:21;;;;;;;;;;;;;;;26.16;39.45;99785.22;2362668;74;50090;-75
2023/07/24 06:35:23;;;;;;;;;;;;;;;26.21;39.38;99787.99;2362572;74;49971;-75
2023/07/24 06:38:24;;;;;;;;;;;;;;;26.23;39.35;99776.36;2362272;74;51467;-75
2023/07/24 06:41:26;;;;;;;;;;;;;;;26.25;39.38;99771.47;2335564;74;50140;-77
2023/07/24 06:44:28;;;;;;;;;;;;;;;26.28;39.30;99779.13;2397525;73;50459;-75
2023/07/24 06:47:29;;;;;;;;;;;;;;;26.32;39.23;99772.64;2397065;74;51616;-75
2023/07/24 06:50:31;;;;;;;;;;;;;;;26.35;39.12;99772.66;2361653;74;51442;-76
2023/07/24 06:53:32;;;;;;;;;;;;;;;26.35;39.06;99761.27;2333599;74;51756;-75
2023/07/24 06:56:34;;;;;;;;;;;;;;;26.38;39.08;99758.58;2361334;74;50545;-76
2023/07/24 06:59:35;;;;;;;;;;;;;;;26.39;39.04;99764.30;2361666;74;50654;-76
2023/07/24 07:02:37;;;;;;;;;;;;;;;26.43;39.02;99755.92;2361519;74;52750;-75
2023/07/24 07:05:39;;;;;;;;;;;;;;;26.44;39.00;99759.74;2389361;74;52473;-76
2023/07/24 07:08:40;;;;;;;;;;;;;;;26.47;38.93;99764.65;2361493;74;51419;-75
2023/07/24 07:11:43;;;;;;;;;;;;;;;26.48;38.94;99745.12;2395200;74;51393;-75
2023/07/24 07:14:44;;;;;;;;;;;;;;;26.48;38.93;99753.25;2362256;74;50143;-76
2023/07/24 07:17:46;;;;;;;;;;;;;;;26.47;38.93;99738.88;2389104;73;51643;-75
2023/07/24 07:20:48;;;;;;;;;;;;;;;26.48;38.92;99747.28;2362447;74;50668;-75
2023/07/24 07:23:49;;;;;;;;;;;;;;;26.49;38.98;99736.73;2361685;74;52493;-75
2023/07/24 07:26:51;;;;;;;;;;;;;;;26.50;38.93;99726.69;2361581;74;50395;-75
2023/07/24 07:29:53;;;;;;;;;;;;;;;26.52;38.88;99728.65;2395064;73;50629;-76
2023/07/24 07:32:54;;;;;;;;;;;;;;;26.52;38.90;99726.45;2361765;74;51509;-76
2023/07/24 07:35:56;;;;;;;;;;;;;;;26.52;38.82;99735.43;2394932;74;51574;-75
2023/07/24 07:38:57;;;;;;;;;;;;;;;26.50;38.85;99732.12;2394634;74;51414;-75
2023/07/24 07:41:59;;;;;;;;;;;;;;;26.49;38.80;99744.88;2389141;74;52389;-75
2023/07/24 07:45:00;;;;;;;;;;;;;;;26.53;38.79;99745.19;2361838;74;51535;-75
2023/07/24 07:48:02;;;;;;;;;;;;;;;26.53;38.84;99757.40;2394824;74;50648;-75
2023/07/24 07:51:04;;;;;;;;;;;;;;;26.50;38.86;99762.77;2362273;74;50330;-76
2023/07/24 07:54:05;;;;;;;;;;;;;;;26.49;38.86;99762.50;2388944;73;51737;-76
2023/07/24 07:57:07;;;;;;;;;;;;;;;26.49;38.86;99754.91;2394728;74;50287;-76
2023/07/24 08:00:09;;;;;;;;;;;;;;;26.48;38.92;99758.13;2361698;74;50431;-76
2023/07/24 08:03:10;;;;;;;;;;;;;;;26.49;38.95;99739.98;2361775;74;50711;-76
2023/07/24 08:06:12;;;;;;;;;;;;;;;26.47;38.99;99755.16;2334613;74;50570;-75
2023/07/24 08:09:13;;;;;;;;;;;;;;;26.50;38.91;99748.39;2361432;74;50367;-75
2023/07/24 08:12:15;;;;;;;;;;;;;;;26.46;38.94;99746.75;2361611;74;50133;-75
2023/07/24 08:15:17;;;;;;;;;;;;;;;26.45;38.92;99745.64;2394723;73;50395;-74
2023/07/24 08:18:18;;;;;;;;;;;;;;;26.45;38.90;99733.43;2334512;74;51589;-75
2023/07/24 08:21:20;;;;;;;;;;;;;;;26.43;39.00;99732.86;2395522;73;50274;-75
2023/07/24 08:24:21;;;;;;;;;;;;;;;26.42;39.00;99727.98;2361497;74;50518;-76
2023/07/24 08:27:23;;;;;;;;;;;;;;;26.39;39.04;99712.77;2361532;74;50668;-75
2023/07/24 08:30:25;;;;;;;;;;;;;;;26.39;38.99;99716.30;2334812;74;52298;-75
2023/07/24 08:33:26;;;;;;;;;;;;;;;26.39;38.99;99714.13;2361656;74;50309;-75
2023/07/24 08:36:29;;;;;;;;;;;;;;;26.37;39.01;99721.70;2394710;73;50088;-75
2023/07/24 08:39:31;;;;;;;;;;;;;;;26.34;39.08;99710.02;2394989;74;52572;-74
2023/07/24 08:42:33;;;;;;;;;;;;;;;26.31;39.09;99707.28;2394827;74;50111;-76
2023/07/24 08:45:34;;;;;;;;;;;;;;;26.28;39.15;99690.98;2395112;74;50401;-75
2023/07/24 08:48:36;;;;;;;;;;;;;;;26.26;39.18;99687.70;2395408;74;50318;-75
2023/07/24 08:51:38;;;;;;;;;;;;;;;26.24;39.22;99689.03;2396496;73;51109;-75
2023/07/24 08:54:39;;;;;;;;;;;;;;;26.24;39.21;99687.69;2397493;74;51326;-76
2023/07/24 08:57:41;;;;;;;;;;;;;;;26.25;39.17;99686.05;2397209;73;50517;-75
2023/07/24 09:00:43;;;;;;;;;;;;;;;26.27;39.15;99680.38;2397622;74;50755;-76
2023/07/24 09:03:44;;;;;;;;;;;;;;;26.23;39.20;99675.18;2397473;74;51513;-76
2023/07/24 09:06:46;;;;;;;;;;;;;;;26.22;39.28;99675.73;2335706;74;52957;-76
2023/07/24 09:09:49;;;;;;;;;;;;;;;26.22;39.34;99668.95;2397626;73;51263;-76
2023/07/24 09:12:51;;;;;;;;;;;;;;;26.23;39.36;99674.67;2397653;74;51528;-75
2023/07/24 09:15:52;;;;;;;;;;;;;;;26.23;39.40;99662.98;2387380;73;51473;-77
2023/07/24 09:18:56;;;;;;;;;;;;;;;26.22;39.52;99667.59;2389009;74;51290;-75
2023/07/24 09:21:59;;;;;;;;;;;;;;;26.22;39.54;99659.45;2362498;74;50850;-76
2023/07/24 09:25:03;;;;;;;;;;;;;;;26.22;39.61;99665.42;2393359;74;50739;-76
2023/07/24 09:28:08;;;;;;;;;;;;;;;26.20;39.64;99661.62;2395394;74;22852;-77
2023/07/24 09:31:10;;;;;;;;;;;;;;;26.20;39.67;99654.84;2356213;74;51742;-75
2023/07/24 09:34:17;;;;;;;;;;;;;;;26.20;39.66;99649.42;2395108;74;51399;-75
2023/07/24 09:37:21;;;;;;;;;;;;;;;26.19;39.63;99653.20;2394964;74;50482;-76
2023/07/24 09:40:23;;;;;;;;;;;;;;;26.20;39.57;99656.20;2391392;74;51558;-76
2023/07/24 09:43:25;;;;;;;;;;;;;;;26.20;39.61;99662.14;2335065;74;52618;-75
2023/07/24 09:46:28;;;;;;;;;;;;;;;26.21;39.62;99672.75;2362567;74;50571;-76
2023/07/24 09:49:29;;;;;;;;;;;;;;;26.20;39.68;99646.72;2395095;74;51757;-76
2023/07/24 09:52:31;;;;;;;;;;;;;;;26.18;39.78;99655.64;2395077;74;50739;-76
2023/07/24 09:55:34;;;;;;;;;;;;;;;26.18;39.85;99669.20;2389191;74;52360;-74
2023/07/24 09:58:39;;;;;;;;;;;;;;;26.19;39.85;99669.47;2394104;74;51460;-74
2023/07/24 10:01:41;;;;;;;;;;;;;;;26.20;39.89;99656.72;2395027;74;51442;-75
2023/07/24 10:04:42;;;;;;;;;;;;;;;26.18;39.87;99646.70;2395070;74;50623;-75
2023/07/24 10:07:44;;;;;;;;;;;;;;;26.19;39.84;99646.42;2394829;74;50750;-76
2023/07/24 10:10:45;;;;;;;;;;;;;;;26.18;39.85;99629.88;2395013;74;51496;-75
2023/07/24 10:13:47;;;;;;;;;;;;;;;26.17;39.87;99622.80;2395450;74;50789;-76
2023/07/24 10:16:55;;;;;;;;;;;;;;;26.13;39.88;99621.70;2395779;74;50676;-76
2023/07/24 10:19:52;;;;;;;;;;;;;;;26.14;39.83;99614.38;2395393;73;22732;-76
2023/07/24 10:22:53;;;;;;;;;;;;;;;26.14;39.81;99594.05;2395233;74;52417;-75
2023/07/24 10:25:55;;;;;;;;;;;;;;;26.16;39.77;99606.81;2395766;74;50738;-75
2023/07/24 10:28:57;;;;;;;;;;;;;;;26.12;39.83;99587.52;2395662;74;50407;-75
2023/07/24 10:31:59;;;;;;;;;;;;;;;26.12;39.84;99578.57;2390203;74;50151;-76
2023/07/24 10:35:02;;;;;;;;;;;;;;;26.11;39.82;99580.47;2395754;73;51295;-75
2023/07/24 10:38:04;;;;;;;;;;;;;;;26.12;39.79;99582.64;2394198;74;51506;-77
2023/07/24 10:41:06;;;;;;;;;;;;;;;26.10;39.79;99560.39;2362000;74;51538;-76
2023/07/24 10:44:07;;;;;;;;;;;;;;;26.08;39.81;99567.44;2352118;74;52251;-75
2023/07/24 10:47:09;;;;;;;;;;;;;;;26.09;39.81;99566.89;2396853;73;51478;-76
2023/07/24 10:50:11;;;;;;;;;;;;;;;26.06;39.82;99556.03;2396136;74;50686;-75
2023/07/24 10:53:15;;;;;;;;;;;;;;;26.06;39.84;99549.25;2363154;74;50202;-76
2023/07/24 10:56:17;;;;;;;;;;;;;;;26.06;39.87;99539.77;2390780;74;52401;-76
2023/07/24 10:59:18;;;;;;;;;;;;;;;26.05;39.85;99537.59;2363689;74;50758;-77
2023/07/24 11:02:20;;;;;;;;;;;;;;;26.05;39.85;99533.53;2363840;74;51489;-76
2023/07/24 11:05:22;;;;;;;;;;;;;;;26.05;39.86;99521.34;2396261;74;51596;-75
2023/07/24 11:08:23;;;;;;;;;;;;;;;26.06;39.82;99517.53;2390191;73;51680;-75
2023/07/24 11:11:29;;;;;;;;;;;;;;;26.05;39.82;99506.42;2396507;74;50497;-78
2023/07/24 11:14:31;;;;;;;;;;;;;;;26.04;39.82;99494.47;2385161;74;50508;-76
2023/07/24 11:17:38;;;;;;;;;;;;;;;26.04;39.83;99499.89;2397204;73;50454;-75
2023/07/24 11:20:41;;;;;;;;;;;;;;;26.02;39.81;99492.55;2362966;74;50167;-76
2023/07/24 11:23:47;;;;;;;;;;;;;;;26.04;39.77;99499.89;2396050;74;50096;-75
2023/07/24 11:26:48;;;;;;;;;;;;;;;26.04;39.76;99489.86;2396869;73;50319;-75
2023/07/24 11:29:50;;;;;;;;;;;;;;;26.06;39.73;99488.27;2363708;74;50067;-77
2023/07/24 11:32:52;;;;;;;;;;;;;;;26.05;39.74;99482.58;2390804;74;50916;-76
2023/07/24 11:35:53;;;;;;;;;;;;;;;26.03;39.75;99462.49;2363180;74;49856;-75
2023/07/24 11:38:55;;;;;;;;;;;;;;;26.02;39.78;99477.64;2363237;74;50293;-76
2023/07/24 11:41:57;;;;;;;;;;;;;;;26.02;39.77;99459.52;2396838;74;51418;-76
2023/07/24 11:45:00;;;;;;;;;;;;;;;26.00;39.80;99460.86;2379290;73;51769;-76
2023/07/24 11:48:02;;;;;;;;;;;;;;;26.01;39.76;99451.63;2397434;73;50823;-75
2023/07/24 11:51:03;;;;;;;;;;;;;;;26.02;39.74;99431.05;2397109;74;50742;-76
2023/07/24 11:54:07;;;;;;;;;;;;;;;26.03;39.75;99437.28;2396870;74;50272;-76
2023/07/24 11:57:16;;;;;;;;;;;;;;;26.01;39.77;99443.50;2390783;74;51260;-75
2023/07/24 12:00:19;;;;;;;;;;;;;;;26.02;39.76;99446.47;2397111;74;51288;-75
2023/07/24 12:03:22;;;;;;;;;;;;;;;26.05;39.66;99462.24;2397092;74;50829;-76
2023/07/24 12:06:26;;;;;;;;;;;;;;;26.03;39.68;99445.41;2395262;74;50890;-76
2023/07/24 12:09:30;;;;;;;;;;;;;;;26.02;39.69;99455.45;2397300;74;22560;-75
2023/07/24 12:12:42;;;;;;;;;;;;;;;26.01;39.74;99461.12;2363547;74;51511;-75
2023/07/24 12:15:44;;;;;;;;;;;;;;;26.01;39.74;99447.02;2385181;74;50686;-75
2023/07/24 12:18:46;;;;;;;;;;;;;;;26.00;39.71;99444.59;2397109;74;52606;-76
2023/07/24 12:21:47;;;;;;;;;;;;;;;25.97;39.75;99435.60;2390459;74;52346;-75
2023/07/24 12:24:49;;;;;;;;;;;;;;;25.95;39.76;99445.37;2389950;74;51751;-76
2023/07/24 12:27:51;;;;;;;;;;;;;;;25.95;39.73;99453.50;2395887;74;51440;-75
2023/07/24 12:30:53;;;;;;;;;;;;;;;25.93;39.74;99477.88;2362939;74;50654;-76
2023/07/24 12:33:54;;;;;;;;;;;;;;;25.94;39.72;99499.83;2336315;74;52405;-76
2023/07/24 12:36:56;;;;;;;;;;;;;;;25.95;39.70;99497.41;2362712;74;50875;-76
2023/07/24 12:39:58;;;;;;;;;;;;;;;25.92;39.73;99489.77;2363016;74;50714;-75
2023/07/24 12:42:59;;;;;;;;;;;;;;;25.91;39.74;99495.73;2363243;74;50842;-77
2023/07/24 12:46:01;;;;;;;;;;;;;;;25.89;39.78;99513.34;2380618;73;50968;-76
2023/07/24 12:49:02;;;;;;;;;;;;;;;25.91;39.76;99497.64;2365096;74;51278;-75
2023/07/24 12:52:04;;;;;;;;;;;;;;;25.93;39.71;99487.36;2400284;73;51611;-75
2023/07/24 12:55:06;;;;;;;;;;;;;;;25.91;39.76;99494.93;2398550;73;50870;-75
2023/07/24 12:58:08;;;;;;;;;;;;;;;25.90;39.78;99498.19;2392091;73;52573;-77
2023/07/24 13:01:09;;;;;;;;;;;;;;;25.92;39.80;99488.42;2392051;73;52326;-75
2023/07/24 13:04:11;;;;;;;;;;;;;;;25.91;39.83;99495.73;2364707;74;50429;-77
2023/07/24 13:07:12;;;;;;;;;;;;;;;25.91;39.89;99491.67;2398830;73;50672;-76
2023/07/24 13:10:14;;;;;;;;;;;;;;;25.90;39.93;99487.89;2364295;74;51398;-74
2023/07/24 13:13:16;;;;;;;;;;;;;;;25.92;39.90;99487.06;2364091;73;52346;-76
2023/07/24 13:16:19;;;;;;;;;;;;;;;25.91;39.89;99482.73;2385206;74;50206;-77
2023/07/24 13:19:21;;;;;;;;;;;;;;;25.90;39.89;99486.53;2399955;73;50794;-76
2023/07/24 13:22:23;;;;;;;;;;;;;;;25.89;39.90;99473.49;2337802;74;51714;-74
2023/07/24 13:25:24;;;;;;;;;;;;;;;25.93;39.88;99480.59;2364251;74;50499;-76
2023/07/24 13:28:26;;;;;;;;;;;;;;;25.91;39.90;99460.50;2363723;73;50318;-75
2023/07/24 13:31:28;;;;;;;;;;;;;;;25.91;39.90;99454.27;2399160;74;50159;-76
2023/07/24 13:34:30;;;;;;;;;;;;;;;25.91;39.96;99451.02;2337718;73;52712;-76
2023/07/24 13:37:32;;;;;;;;;;;;;;;25.93;39.88;99454.29;2398492;73;50791;-75
2023/07/24 13:40:33;;;;;;;;;;;;;;;25.94;39.88;99445.07;2398744;74;50318;-76
2023/07/24 13:43:35;;;;;;;;;;;;;;;25.93;39.89;99437.22;2395445;73;50623;-76
2023/07/24 13:46:36;;;;;;;;;;;;;;;25.94;39.88;99427.45;2354339;74;51006;-76
2023/07/24 13:49:38;;;;;;;;;;;;;;;25.95;39.91;99425.59;2363913;74;51349;-75
2023/07/24 13:52:40;;;;;;;;;;;;;;;25.93;39.95;99419.06;2363980;73;51584;-75
2023/07/24 13:55:43;;;;;;;;;;;;;;;25.92;40.00;99426.92;2398792;73;50392;-77
2023/07/24 13:58:44;;;;;;;;;;;;;;;25.93;40.03;99419.60;2392661;73;49914;-76
2023/07/24 14:01:46;;;;;;;;;;;;;;;25.91;40.06;99414.98;2364573;74;50744;-76
2023/07/24 14:04:48;;;;;;;;;;;;;;;25.90;40.08;99397.09;2399733;74;51481;-75
2023/07/24 14:07:50;;;;;;;;;;;;;;;25.88;40.14;99391.92;2399351;73;50818;-75
2023/07/24 14:10:52;;;;;;;;;;;;;;;25.89;40.12;99390.03;2393516;73;52327;-76
2023/07/24 14:13:53;;;;;;;;;;;;;;;25.89;40.10;99401.67;2391927;73;50533;-76
2023/07/24 14:16:55;;;;;;;;;;;;;;;25.90;40.06;99395.74;2392699;73;50756;-75
2023/07/24 14:19:56;;;;;;;;;;;;;;;25.90;40.05;99383.55;2365157;74;51343;-75
2023/07/24 14:22:58;;;;;;;;;;;;;;;25.91;40.00;99384.63;2338840;74;51754;-76
2023/07/24 14:25:59;;;;;;;;;;;;;;;25.90;40.04;99375.42;2398154;74;51508;-76
2023/07/24 14:29:01;;;;;;;;;;;;;;;25.90;40.02;99382.19;2398679;74;50765;-76
2023/07/24 14:32:03;;;;;;;;;;;;;;;25.91;40.01;99391.94;2399644;74;50297;-74
2023/07/24 14:35:04;;;;;;;;;;;;;;;25.89;40.03;99388.12;2340528;74;51676;-77
2023/07/24 14:38:06;;;;;;;;;;;;;;;25.90;40.00;99395.74;2399320;73;50744;-75
2023/07/24 14:41:08;;;;;;;;;;;;;;;25.89;40.02;99398.16;2399594;73;50105;-75
2023/07/24 14:44:10;;;;;;;;;;;;;;;25.90;39.99;99405.23;2399801;74;50653;-74
2023/07/24 14:47:13;;;;;;;;;;;;;;;25.90;40.00;99405.23;2395693;73;50137;-74
2023/07/24 14:50:14;;;;;;;;;;;;;;;25.90;39.99;99393.03;2402871;73;50735;-75
2023/07/24 14:53:16;;;;;;;;;;;;;;;25.91;39.99;99387.88;2365916;73;50011;-77
2023/07/24 14:56:17;;;;;;;;;;;;;;;25.89;40.01;99371.05;2366004;74;50718;-75
2023/07/24 14:59:19;;;;;;;;;;;;;;;25.87;40.03;99356.95;2339643;73;52624;-76
2023/07/24 15:02:20;;;;;;;;;;;;;;;25.87;40.02;99337.98;2400717;73;51474;-76
2023/07/24 15:05:22;;;;;;;;;;;;;;;25.89;40.03;99341.25;2401820;73;50687;-75
2023/07/24 15:08:24;;;;;;;;;;;;;;;25.88;40.05;99339.63;2392388;73;51864;-76
2023/07/24 15:11:25;;;;;;;;;;;;;;;25.85;40.09;99340.42;2363624;74;51658;-76
2023/07/24 15:14:27;;;;;;;;;;;;;;;25.85;40.07;99338.26;2396448;73;50639;-75
2023/07/24 15:17:28;;;;;;;;;;;;;;;25.87;40.07;99332.05;2396510;74;50429;-75
2023/07/24 15:20:30;;;;;;;;;;;;;;;25.88;40.12;99326.08;2396010;74;50307;-76
2023/07/24 15:23:31;;;;;;;;;;;;;;;25.89;40.07;99318.21;2389814;74;51730;-75
2023/07/24 15:26:33;;;;;;;;;;;;;;;25.90;40.06;99310.38;2362131;74;50860;-75
2023/07/24 15:29:35;;;;;;;;;;;;;;;25.91;40.08;99310.64;2395647;74;50702;-76
2023/07/24 15:32:37;;;;;;;;;;;;;;;25.91;40.08;99305.22;2395825;74;51858;-76
2023/07/24 15:35:39;;;;;;;;;;;;;;;25.90;40.16;99298.18;2389749;74;51700;-76
2023/07/24 15:38:40;;;;;;;;;;;;;;;25.91;40.13;99287.60;2362278;74;51547;-76
2023/07/24 15:41:42;;;;;;;;;;;;;;;25.92;40.10;99281.09;2396227;73;51461;-76
2023/07/24 15:44:43;;;;;;;;;;;;;;;25.95;40.08;99283.30;2396638;74;51721;-77
2023/07/24 15:47:45;;;;;;;;;;;;;;;25.96;40.04;99273.52;2396944;73;50687;-76